sensor_id;sensor_type;location;lat;lon;timestamp;P1;durP1;ratioP1;P2;durP2;ratioP2
62401;SDS011;48440;51.224;22.506;2023-03-01T00:01:29;88.97;;;33.33;;
62401;SDS011;48440;51.224;22.506;2023-03-01T00:04:04;93.80;;;32.60;;
62401;SDS011;48440;51.224;22.506;2023-03-01T00:06:34;77.93;;;31.42;;
62401;SDS011;48440;51.224;22.506;2023-03-01T00:09:04;84.35;;;30.80;;
62401;SDS011;48440;51.224;22.506;2023-03-01T00:11:34;80.72;;;31.42;;
62401;SDS011;48440;51.224;22.506;2023-03-01T00:14:00;81.75;;;30.40;;
62401;SDS011;48440;51.224;22.506;2023-03-01T00:16:30;65.53;;;29.67;;
62401;SDS011;48440;51.224;22.506;2023-03-01T00:19:00;71.18;;;29.63;;
62401;SDS011;48440;51.224;22.506;2023-03-01T00:21:29;66.85;;;27.30;;
62401;SDS011;48440;51.224;22.506;2023-03-01T00:23:56;63.92;;;26.95;;
62401;SDS011;48440;51.224;22.506;2023-03-01T00:26:25;60.03;;;25.77;;
62401;SDS011;48440;51.224;22.506;2023-03-01T00:29:07;64.13;;;26.60;;
62401;SDS011;48440;51.224;22.506;2023-03-01T00:31:33;63.92;;;26.02;;
62401;SDS011;48440;51.224;22.506;2023-03-01T00:34:00;59.83;;;26.73;;
62401;SDS011;48440;51.224;22.506;2023-03-01T00:36:45;64.97;;;27.15;;
62401;SDS011;48440;51.224;22.506;2023-03-01T00:39:23;64.60;;;28.02;;
62401;SDS011;48440;51.224;22.506;2023-03-01T00:42:31;67.57;;;27.05;;
62401;SDS011;48440;51.224;22.506;2023-03-01T00:44:56;73.35;;;27.40;;
62401;SDS011;48440;51.224;22.506;2023-03-01T00:47:22;75.68;;;29.90;;
62401;SDS011;48440;51.224;22.506;2023-03-01T00:52:45;62.92;;;28.00;;
62401;SDS011;48440;51.224;22.506;2023-03-01T00:55:13;65.57;;;27.55;;
62401;SDS011;48440;51.224;22.506;2023-03-01T01:00:19;70.18;;;27.15;;
62401;SDS011;48440;51.224;22.506;2023-03-01T01:03:13;63.03;;;26.65;;
62401;SDS011;48440;51.224;22.506;2023-03-01T01:05:46;58.33;;;27.10;;
62401;SDS011;48440;51.224;22.506;2023-03-01T01:08:32;64.57;;;26.73;;
62401;SDS011;48440;51.224;22.506;2023-03-01T01:14:13;60.30;;;27.33;;
62401;SDS011;48440;51.224;22.506;2023-03-01T01:16:39;57.45;;;25.42;;
62401;SDS011;48440;51.224;22.506;2023-03-01T01:19:11;62.17;;;26.35;;
62401;SDS011;48440;51.224;22.506;2023-03-01T01:21:55;63.50;;;27.20;;
62401;SDS011;48440;51.224;22.506;2023-03-01T01:24:38;63.72;;;26.38;;
62401;SDS011;48440;51.224;22.506;2023-03-01T01:30:08;56.17;;;24.63;;
62401;SDS011;48440;51.224;22.506;2023-03-01T01:32:37;61.40;;;25.92;;
62401;SDS011;48440;51.224;22.506;2023-03-01T01:35:13;58.00;;;24.35;;
62401;SDS011;48440;51.224;22.506;2023-03-01T01:37:41;52.72;;;24.08;;
62401;SDS011;48440;51.224;22.506;2023-03-01T01:40:24;60.50;;;25.35;;
62401;SDS011;48440;51.224;22.506;2023-03-01T01:43:23;56.65;;;23.73;;
62401;SDS011;48440;51.224;22.506;2023-03-01T01:46:07;54.78;;;25.13;;
62401;SDS011;48440;51.224;22.506;2023-03-01T01:48:54;61.25;;;25.45;;
62401;SDS011;48440;51.224;22.506;2023-03-01T01:51:45;66.47;;;25.05;;
62401;SDS011;48440;51.224;22.506;2023-03-01T01:54:21;62.13;;;25.63;;
62401;SDS011;48440;51.224;22.506;2023-03-01T01:56:55;58.00;;;25.38;;
62401;SDS011;48440;51.224;22.506;2023-03-01T01:59:25;53.22;;;23.88;;
62401;SDS011;48440;51.224;22.506;2023-03-01T02:01:55;56.45;;;24.60;;
62401;SDS011;48440;51.224;22.506;2023-03-01T02:08:13;54.40;;;23.00;;
62401;SDS011;48440;51.224;22.506;2023-03-01T02:14:07;52.42;;;23.08;;
62401;SDS011;48440;51.224;22.506;2023-03-01T02:16:48;56.80;;;24.90;;
62401;SDS011;48440;51.224;22.506;2023-03-01T02:28:38;50.97;;;22.48;;
62401;SDS011;48440;51.224;22.506;2023-03-01T02:34:48;56.20;;;23.08;;
62401;SDS011;48440;51.224;22.506;2023-03-01T02:37:19;50.70;;;22.30;;
62401;SDS011;48440;51.224;22.506;2023-03-01T02:40:01;58.83;;;24.02;;
62401;SDS011;48440;51.224;22.506;2023-03-01T02:42:43;54.40;;;24.05;;
62401;SDS011;48440;51.224;22.506;2023-03-01T02:45:25;52.25;;;23.42;;
62401;SDS011;48440;51.224;22.506;2023-03-01T02:48:07;55.67;;;24.40;;
62401;SDS011;48440;51.224;22.506;2023-03-01T02:50:40;59.58;;;25.52;;
62401;SDS011;48440;51.224;22.506;2023-03-01T02:56:31;57.47;;;24.75;;
62401;SDS011;48440;51.224;22.506;2023-03-01T02:59:00;55.53;;;24.02;;
62401;SDS011;48440;51.224;22.506;2023-03-01T03:01:28;56.97;;;25.25;;
62401;SDS011;48440;51.224;22.506;2023-03-01T03:04:07;57.63;;;23.30;;
62401;SDS011;48440;51.224;22.506;2023-03-01T03:06:42;56.40;;;26.40;;
62401;SDS011;48440;51.224;22.506;2023-03-01T03:12:58;61.53;;;25.60;;
62401;SDS011;48440;51.224;22.506;2023-03-01T03:15:37;62.55;;;26.80;;
62401;SDS011;48440;51.224;22.506;2023-03-01T03:18:28;57.33;;;26.60;;
62401;SDS011;48440;51.224;22.506;2023-03-01T03:30:18;66.30;;;25.88;;
62401;SDS011;48440;51.224;22.506;2023-03-01T03:35:52;59.25;;;25.42;;
62401;SDS011;48440;51.224;22.506;2023-03-01T03:41:38;52.40;;;24.33;;
62401;SDS011;48440;51.224;22.506;2023-03-01T03:44:22;54.85;;;24.65;;
62401;SDS011;48440;51.224;22.506;2023-03-01T03:46:53;55.20;;;24.52;;
62401;SDS011;48440;51.224;22.506;2023-03-01T03:49:18;60.92;;;26.50;;
62401;SDS011;48440;51.224;22.506;2023-03-01T03:51:45;58.47;;;24.73;;
62401;SDS011;48440;51.224;22.506;2023-03-01T03:54:11;58.03;;;25.27;;
62401;SDS011;48440;51.224;22.506;2023-03-01T03:56:36;54.53;;;25.05;;
62401;SDS011;48440;51.224;22.506;2023-03-01T03:59:02;56.90;;;26.10;;
62401;SDS011;48440;51.224;22.506;2023-03-01T04:01:30;60.03;;;26.35;;
62401;SDS011;48440;51.224;22.506;2023-03-01T04:06:34;56.10;;;25.02;;
62401;SDS011;48440;51.224;22.506;2023-03-01T04:09:00;60.53;;;26.33;;
62401;SDS011;48440;51.224;22.506;2023-03-01T04:11:30;62.00;;;25.27;;
62401;SDS011;48440;51.224;22.506;2023-03-01T04:14:46;61.58;;;27.58;;
62401;SDS011;48440;51.224;22.506;2023-03-01T04:27:02;59.38;;;25.13;;
62401;SDS011;48440;51.224;22.506;2023-03-01T04:32:14;61.80;;;27.77;;
62401;SDS011;48440;51.224;22.506;2023-03-01T04:34:42;64.88;;;27.98;;
62401;SDS011;48440;51.224;22.506;2023-03-01T04:40:39;58.25;;;25.40;;
62401;SDS011;48440;51.224;22.506;2023-03-01T04:46:30;55.13;;;23.95;;
62401;SDS011;48440;51.224;22.506;2023-03-01T04:49:39;58.30;;;25.00;;
62401;SDS011;48440;51.224;22.506;2023-03-01T04:55:54;63.40;;;24.13;;
62401;SDS011;48440;51.224;22.506;2023-03-01T04:58:29;59.67;;;25.15;;
62401;SDS011;48440;51.224;22.506;2023-03-01T05:01:38;56.33;;;23.05;;
62401;SDS011;48440;51.224;22.506;2023-03-01T05:04:04;62.65;;;25.17;;
62401;SDS011;48440;51.224;22.506;2023-03-01T05:06:30;55.90;;;24.45;;
62401;SDS011;48440;51.224;22.506;2023-03-01T05:08:56;56.15;;;23.75;;
62401;SDS011;48440;51.224;22.506;2023-03-01T05:11:22;58.30;;;24.80;;
62401;SDS011;48440;51.224;22.506;2023-03-01T05:13:48;57.42;;;24.83;;
62401;SDS011;48440;51.224;22.506;2023-03-01T05:16:18;57.97;;;25.30;;
62401;SDS011;48440;51.224;22.506;2023-03-01T05:18:44;63.30;;;25.08;;
62401;SDS011;48440;51.224;22.506;2023-03-01T05:21:12;60.60;;;24.98;;
62401;SDS011;48440;51.224;22.506;2023-03-01T05:23:41;61.15;;;25.73;;
62401;SDS011;48440;51.224;22.506;2023-03-01T05:26:07;61.35;;;25.92;;
62401;SDS011;48440;51.224;22.506;2023-03-01T05:28:33;55.17;;;24.67;;
62401;SDS011;48440;51.224;22.506;2023-03-01T05:30:59;58.47;;;25.45;;
62401;SDS011;48440;51.224;22.506;2023-03-01T05:33:26;56.15;;;26.13;;
62401;SDS011;48440;51.224;22.506;2023-03-01T05:35:52;59.40;;;25.80;;
62401;SDS011;48440;51.224;22.506;2023-03-01T05:38:18;61.00;;;25.50;;
62401;SDS011;48440;51.224;22.506;2023-03-01T05:40:46;68.45;;;25.85;;
62401;SDS011;48440;51.224;22.506;2023-03-01T05:43:14;56.70;;;25.95;;
62401;SDS011;48440;51.224;22.506;2023-03-01T05:45:41;63.25;;;27.42;;
62401;SDS011;48440;51.224;22.506;2023-03-01T05:48:07;61.53;;;27.00;;
62401;SDS011;48440;51.224;22.506;2023-03-01T05:50:35;70.28;;;27.73;;
62401;SDS011;48440;51.224;22.506;2023-03-01T05:53:05;69.90;;;28.42;;
62401;SDS011;48440;51.224;22.506;2023-03-01T05:55:33;72.55;;;31.08;;
62401;SDS011;48440;51.224;22.506;2023-03-01T05:58:04;68.75;;;29.55;;
62401;SDS011;48440;51.224;22.506;2023-03-01T06:00:31;70.10;;;30.20;;
62401;SDS011;48440;51.224;22.506;2023-03-01T06:02:58;73.03;;;30.83;;
62401;SDS011;48440;51.224;22.506;2023-03-01T06:05:27;76.63;;;31.45;;
62401;SDS011;48440;51.224;22.506;2023-03-01T06:08:00;81.72;;;31.85;;
62401;SDS011;48440;51.224;22.506;2023-03-01T06:10:26;70.27;;;30.63;;
62401;SDS011;48440;51.224;22.506;2023-03-01T06:12:53;72.57;;;32.70;;
62401;SDS011;48440;51.224;22.506;2023-03-01T06:15:22;82.05;;;32.38;;
62401;SDS011;48440;51.224;22.506;2023-03-01T06:17:54;81.70;;;31.75;;
62401;SDS011;48440;51.224;22.506;2023-03-01T06:20:24;66.47;;;29.90;;
62401;SDS011;48440;51.224;22.506;2023-03-01T06:22:50;84.00;;;31.90;;
62401;SDS011;48440;51.224;22.506;2023-03-01T06:25:18;85.50;;;31.90;;
62401;SDS011;48440;51.224;22.506;2023-03-01T06:27:45;72.65;;;30.52;;
62401;SDS011;48440;51.224;22.506;2023-03-01T06:32:57;76.68;;;30.45;;
62401;SDS011;48440;51.224;22.506;2023-03-01T06:35:26;81.40;;;29.73;;
62401;SDS011;48440;51.224;22.506;2023-03-01T06:37:54;68.32;;;28.75;;
62401;SDS011;48440;51.224;22.506;2023-03-01T06:40:31;66.18;;;29.08;;
62401;SDS011;48440;51.224;22.506;2023-03-01T06:42:57;72.80;;;29.17;;
62401;SDS011;48440;51.224;22.506;2023-03-01T06:45:31;72.47;;;29.08;;
62401;SDS011;48440;51.224;22.506;2023-03-01T06:48:01;71.07;;;29.20;;
62401;SDS011;48440;51.224;22.506;2023-03-01T06:50:30;65.85;;;25.75;;
62401;SDS011;48440;51.224;22.506;2023-03-01T06:52:59;69.32;;;28.05;;
62401;SDS011;48440;51.224;22.506;2023-03-01T06:55:24;64.95;;;26.42;;
62401;SDS011;48440;51.224;22.506;2023-03-01T06:58:00;60.40;;;25.55;;
62401;SDS011;48440;51.224;22.506;2023-03-01T07:00:28;55.72;;;23.80;;
62401;SDS011;48440;51.224;22.506;2023-03-01T07:03:09;59.22;;;24.98;;
62401;SDS011;48440;51.224;22.506;2023-03-01T07:05:35;58.33;;;24.25;;
62401;SDS011;48440;51.224;22.506;2023-03-01T07:08:01;61.08;;;25.40;;
62401;SDS011;48440;51.224;22.506;2023-03-01T07:10:27;56.42;;;22.90;;
62401;SDS011;48440;51.224;22.506;2023-03-01T07:12:56;62.90;;;25.27;;
62401;SDS011;48440;51.224;22.506;2023-03-01T07:15:23;56.88;;;23.40;;
62401;SDS011;48440;51.224;22.506;2023-03-01T07:17:49;59.85;;;23.77;;
62401;SDS011;48440;51.224;22.506;2023-03-01T07:20:16;60.20;;;23.20;;
62401;SDS011;48440;51.224;22.506;2023-03-01T07:22:49;49.08;;;21.70;;
62401;SDS011;48440;51.224;22.506;2023-03-01T07:25:15;49.67;;;21.38;;
62401;SDS011;48440;51.224;22.506;2023-03-01T07:27:40;50.70;;;22.27;;
62401;SDS011;48440;51.224;22.506;2023-03-01T07:30:07;55.08;;;21.92;;
62401;SDS011;48440;51.224;22.506;2023-03-01T07:32:33;54.05;;;23.08;;
62401;SDS011;48440;51.224;22.506;2023-03-01T07:34:59;50.78;;;22.23;;
62401;SDS011;48440;51.224;22.506;2023-03-01T07:37:24;57.58;;;23.15;;
62401;SDS011;48440;51.224;22.506;2023-03-01T07:39:50;52.80;;;23.13;;
62401;SDS011;48440;51.224;22.506;2023-03-01T07:42:16;52.55;;;22.45;;
62401;SDS011;48440;51.224;22.506;2023-03-01T07:44:41;51.60;;;24.20;;
62401;SDS011;48440;51.224;22.506;2023-03-01T07:47:07;50.67;;;23.67;;
62401;SDS011;48440;51.224;22.506;2023-03-01T07:49:33;58.78;;;24.70;;
62401;SDS011;48440;51.224;22.506;2023-03-01T07:51:59;54.75;;;24.38;;
62401;SDS011;48440;51.224;22.506;2023-03-01T07:54:24;52.90;;;23.25;;
62401;SDS011;48440;51.224;22.506;2023-03-01T07:56:51;53.95;;;25.45;;
62401;SDS011;48440;51.224;22.506;2023-03-01T07:59:17;61.47;;;26.25;;
62401;SDS011;48440;51.224;22.506;2023-03-01T08:01:43;55.03;;;25.00;;
62401;SDS011;48440;51.224;22.506;2023-03-01T08:04:08;57.65;;;25.73;;
62401;SDS011;48440;51.224;22.506;2023-03-01T08:06:34;50.80;;;25.23;;
62401;SDS011;48440;51.224;22.506;2023-03-01T08:09:01;59.58;;;25.98;;
62401;SDS011;48440;51.224;22.506;2023-03-01T08:11:27;58.70;;;25.40;;
62401;SDS011;48440;51.224;22.506;2023-03-01T08:13:54;55.28;;;26.75;;
62401;SDS011;48440;51.224;22.506;2023-03-01T08:16:19;61.90;;;26.25;;
62401;SDS011;48440;51.224;22.506;2023-03-01T08:18:45;55.25;;;26.05;;
62401;SDS011;48440;51.224;22.506;2023-03-01T08:21:12;55.60;;;25.17;;
62401;SDS011;48440;51.224;22.506;2023-03-01T08:23:39;54.70;;;25.02;;
62401;SDS011;48440;51.224;22.506;2023-03-01T08:26:07;55.13;;;25.25;;
62401;SDS011;48440;51.224;22.506;2023-03-01T08:28:39;50.88;;;25.48;;
62401;SDS011;48440;51.224;22.506;2023-03-01T08:33:43;49.13;;;24.60;;
62401;SDS011;48440;51.224;22.506;2023-03-01T08:36:08;53.65;;;25.27;;
62401;SDS011;48440;51.224;22.506;2023-03-01T08:38:34;46.72;;;22.83;;
62401;SDS011;48440;51.224;22.506;2023-03-01T08:41:01;54.30;;;24.45;;
62401;SDS011;48440;51.224;22.506;2023-03-01T08:43:28;48.92;;;23.80;;
62401;SDS011;48440;51.224;22.506;2023-03-01T08:45:54;51.60;;;24.02;;
62401;SDS011;48440;51.224;22.506;2023-03-01T08:48:19;46.08;;;22.17;;
62401;SDS011;48440;51.224;22.506;2023-03-01T08:50:46;45.08;;;21.90;;
62401;SDS011;48440;51.224;22.506;2023-03-01T08:53:11;37.80;;;21.08;;
62401;SDS011;48440;51.224;22.506;2023-03-01T08:55:37;40.42;;;21.58;;
62401;SDS011;48440;51.224;22.506;2023-03-01T08:58:03;44.75;;;22.45;;
62401;SDS011;48440;51.224;22.506;2023-03-01T09:00:28;44.60;;;22.30;;
62401;SDS011;48440;51.224;22.506;2023-03-01T09:02:54;45.50;;;23.15;;
62401;SDS011;48440;51.224;22.506;2023-03-01T09:05:20;46.30;;;21.85;;
62401;SDS011;48440;51.224;22.506;2023-03-01T09:07:46;41.60;;;21.02;;
62401;SDS011;48440;51.224;22.506;2023-03-01T09:10:11;43.65;;;21.55;;
62401;SDS011;48440;51.224;22.506;2023-03-01T09:12:37;53.15;;;23.02;;
62401;SDS011;48440;51.224;22.506;2023-03-01T09:15:03;48.92;;;21.90;;
62401;SDS011;48440;51.224;22.506;2023-03-01T09:17:29;48.97;;;22.17;;
62401;SDS011;48440;51.224;22.506;2023-03-01T09:19:54;37.45;;;19.30;;
62401;SDS011;48440;51.224;22.506;2023-03-01T09:22:20;36.97;;;19.02;;
62401;SDS011;48440;51.224;22.506;2023-03-01T09:24:46;41.22;;;19.73;;
62401;SDS011;48440;51.224;22.506;2023-03-01T09:27:12;42.05;;;19.23;;
62401;SDS011;48440;51.224;22.506;2023-03-01T09:29:39;38.30;;;18.23;;
62401;SDS011;48440;51.224;22.506;2023-03-01T09:32:05;38.92;;;17.70;;
62401;SDS011;48440;51.224;22.506;2023-03-01T09:34:33;43.53;;;18.27;;
62401;SDS011;48440;51.224;22.506;2023-03-01T09:37:19;33.13;;;17.27;;
62401;SDS011;48440;51.224;22.506;2023-03-01T09:39:44;32.33;;;16.60;;
62401;SDS011;48440;51.224;22.506;2023-03-01T09:42:10;31.85;;;17.65;;
62401;SDS011;48440;51.224;22.506;2023-03-01T09:44:47;34.80;;;17.98;;
62401;SDS011;48440;51.224;22.506;2023-03-01T09:47:28;33.80;;;17.60;;
62401;SDS011;48440;51.224;22.506;2023-03-01T09:50:15;34.97;;;18.30;;
62401;SDS011;48440;51.224;22.506;2023-03-01T09:53:02;33.13;;;17.05;;
62401;SDS011;48440;51.224;22.506;2023-03-01T10:00:52;35.90;;;16.90;;
62401;SDS011;48440;51.224;22.506;2023-03-01T10:14:32;32.55;;;15.25;;
62401;SDS011;48440;51.224;22.506;2023-03-01T10:16:52;33.38;;;17.08;;
62401;SDS011;48440;51.224;22.506;2023-03-01T10:19:32;39.97;;;19.52;;
62401;SDS011;48440;51.224;22.506;2023-03-01T10:24:46;39.58;;;18.85;;
62401;SDS011;48440;51.224;22.506;2023-03-01T10:27:23;40.00;;;19.17;;
62401;SDS011;48440;51.224;22.506;2023-03-01T10:32:19;34.70;;;17.30;;
62401;SDS011;48440;51.224;22.506;2023-03-01T10:34:47;39.35;;;17.83;;
62401;SDS011;48440;51.224;22.506;2023-03-01T10:37:14;35.60;;;18.38;;
62401;SDS011;48440;51.224;22.506;2023-03-01T10:42:37;36.00;;;17.63;;
62401;SDS011;48440;51.224;22.506;2023-03-01T10:45:25;35.17;;;18.67;;
62401;SDS011;48440;51.224;22.506;2023-03-01T10:48:16;40.00;;;19.30;;
62401;SDS011;48440;51.224;22.506;2023-03-01T10:50:45;36.80;;;17.42;;
62401;SDS011;48440;51.224;22.506;2023-03-01T10:55:59;34.92;;;16.80;;
62401;SDS011;48440;51.224;22.506;2023-03-01T10:58:30;35.10;;;17.90;;
62401;SDS011;48440;51.224;22.506;2023-03-01T11:01:03;38.28;;;17.25;;
62401;SDS011;48440;51.224;22.506;2023-03-01T11:03:32;41.92;;;18.52;;
62401;SDS011;48440;51.224;22.506;2023-03-01T11:08:42;37.33;;;16.58;;
62401;SDS011;48440;51.224;22.506;2023-03-01T11:11:17;30.85;;;15.57;;
62401;SDS011;48440;51.224;22.506;2023-03-01T11:13:50;32.47;;;15.85;;
62401;SDS011;48440;51.224;22.506;2023-03-01T11:16:24;38.83;;;16.15;;
62401;SDS011;48440;51.224;22.506;2023-03-01T11:18:56;35.85;;;16.40;;
62401;SDS011;48440;51.224;22.506;2023-03-01T11:21:23;32.95;;;15.65;;
62401;SDS011;48440;51.224;22.506;2023-03-01T11:23:51;31.33;;;15.77;;
62401;SDS011;48440;51.224;22.506;2023-03-01T11:26:17;36.90;;;15.98;;
62401;SDS011;48440;51.224;22.506;2023-03-01T11:28:44;36.70;;;16.92;;
62401;SDS011;48440;51.224;22.506;2023-03-01T11:31:15;34.13;;;15.68;;
62401;SDS011;48440;51.224;22.506;2023-03-01T11:33:46;33.67;;;16.27;;
62401;SDS011;48440;51.224;22.506;2023-03-01T11:39:02;33.63;;;15.68;;
62401;SDS011;48440;51.224;22.506;2023-03-01T11:41:41;27.05;;;14.43;;
62401;SDS011;48440;51.224;22.506;2023-03-01T11:44:16;33.13;;;15.57;;
62401;SDS011;48440;51.224;22.506;2023-03-01T11:54:48;36.42;;;17.40;;
62401;SDS011;48440;51.224;22.506;2023-03-01T12:09:00;33.92;;;16.17;;
62401;SDS011;48440;51.224;22.506;2023-03-01T12:14:19;30.65;;;14.27;;
62401;SDS011;48440;51.224;22.506;2023-03-01T12:22:51;29.83;;;13.98;;
62401;SDS011;48440;51.224;22.506;2023-03-01T12:33:37;30.77;;;14.27;;
62401;SDS011;48440;51.224;22.506;2023-03-01T12:41:47;29.27;;;14.02;;
62401;SDS011;48440;51.224;22.506;2023-03-01T12:50:17;35.00;;;14.63;;
62401;SDS011;48440;51.224;22.506;2023-03-01T12:52:52;27.70;;;14.85;;
62401;SDS011;48440;51.224;22.506;2023-03-01T13:09:29;29.40;;;14.35;;
62401;SDS011;48440;51.224;22.506;2023-03-01T13:12:41;35.92;;;14.48;;
62401;SDS011;48440;51.224;22.506;2023-03-01T13:15:28;29.35;;;13.52;;
62401;SDS011;48440;51.224;22.506;2023-03-01T13:20:27;34.85;;;14.00;;
62401;SDS011;48440;51.224;22.506;2023-03-01T13:28:41;27.08;;;12.90;;
62401;SDS011;48440;51.224;22.506;2023-03-01T13:33:54;28.40;;;13.45;;
62401;SDS011;48440;51.224;22.506;2023-03-01T13:46:37;29.63;;;13.77;;
62401;SDS011;48440;51.224;22.506;2023-03-01T13:49:03;34.15;;;14.02;;
62401;SDS011;48440;51.224;22.506;2023-03-01T13:51:29;28.88;;;14.02;;
62401;SDS011;48440;51.224;22.506;2023-03-01T13:53:56;29.30;;;13.75;;
62401;SDS011;48440;51.224;22.506;2023-03-01T14:01:27;28.63;;;12.68;;
62401;SDS011;48440;51.224;22.506;2023-03-01T14:03:57;33.47;;;13.45;;
62401;SDS011;48440;51.224;22.506;2023-03-01T14:06:27;32.88;;;13.52;;
62401;SDS011;48440;51.224;22.506;2023-03-01T14:09:14;32.47;;;14.55;;
62401;SDS011;48440;51.224;22.506;2023-03-01T14:20:20;31.80;;;14.45;;
62401;SDS011;48440;51.224;22.506;2023-03-01T14:22:47;33.38;;;12.70;;
62401;SDS011;48440;51.224;22.506;2023-03-01T14:27:44;31.02;;;13.63;;
62401;SDS011;48440;51.224;22.506;2023-03-01T14:33:04;31.98;;;14.50;;
62401;SDS011;48440;51.224;22.506;2023-03-01T14:35:35;31.17;;;14.02;;
62401;SDS011;48440;51.224;22.506;2023-03-01T14:38:02;31.48;;;14.05;;
62401;SDS011;48440;51.224;22.506;2023-03-01T14:40:30;30.40;;;13.85;;
62401;SDS011;48440;51.224;22.506;2023-03-01T14:43:11;32.38;;;14.52;;
62401;SDS011;48440;51.224;22.506;2023-03-01T14:45:42;29.08;;;14.02;;
62401;SDS011;48440;51.224;22.506;2023-03-01T14:48:13;32.33;;;13.65;;
62401;SDS011;48440;51.224;22.506;2023-03-01T14:50:40;33.60;;;14.40;;
62401;SDS011;48440;51.224;22.506;2023-03-01T14:53:07;35.05;;;15.32;;
62401;SDS011;48440;51.224;22.506;2023-03-01T14:55:53;32.58;;;14.05;;
62401;SDS011;48440;51.224;22.506;2023-03-01T14:58:23;30.05;;;14.48;;
62401;SDS011;48440;51.224;22.506;2023-03-01T15:00:51;30.92;;;13.15;;
62401;SDS011;48440;51.224;22.506;2023-03-01T15:05:51;25.83;;;12.55;;
62401;SDS011;48440;51.224;22.506;2023-03-01T15:08:19;28.67;;;13.48;;
62401;SDS011;48440;51.224;22.506;2023-03-01T15:10:58;33.15;;;14.35;;
62401;SDS011;48440;51.224;22.506;2023-03-01T15:13:39;30.95;;;14.35;;
62401;SDS011;48440;51.224;22.506;2023-03-01T15:16:10;30.73;;;15.20;;
62401;SDS011;48440;51.224;22.506;2023-03-01T15:18:37;34.60;;;14.57;;
62401;SDS011;48440;51.224;22.506;2023-03-01T15:21:31;40.60;;;15.52;;
62401;SDS011;48440;51.224;22.506;2023-03-01T15:24:00;35.70;;;15.20;;
62401;SDS011;48440;51.224;22.506;2023-03-01T15:29:27;34.23;;;16.37;;
62401;SDS011;48440;51.224;22.506;2023-03-01T15:31:59;40.03;;;16.75;;
62401;SDS011;48440;51.224;22.506;2023-03-01T15:36:57;37.00;;;16.38;;
62401;SDS011;48440;51.224;22.506;2023-03-01T15:45:07;39.88;;;16.40;;
62401;SDS011;48440;51.224;22.506;2023-03-01T15:47:36;36.63;;;16.67;;
62401;SDS011;48440;51.224;22.506;2023-03-01T15:50:11;33.00;;;15.55;;
62401;SDS011;48440;51.224;22.506;2023-03-01T15:52:42;37.63;;;18.08;;
62401;SDS011;48440;51.224;22.506;2023-03-01T15:55:18;42.30;;;16.90;;
62401;SDS011;48440;51.224;22.506;2023-03-01T15:57:47;43.40;;;18.13;;
62401;SDS011;48440;51.224;22.506;2023-03-01T16:00:14;37.47;;;16.33;;
62401;SDS011;48440;51.224;22.506;2023-03-01T16:02:41;37.50;;;16.13;;
62401;SDS011;48440;51.224;22.506;2023-03-01T16:07:55;39.22;;;16.85;;
62401;SDS011;48440;51.224;22.506;2023-03-01T16:12:59;36.17;;;16.23;;
62401;SDS011;48440;51.224;22.506;2023-03-01T16:15:33;37.67;;;17.40;;
62401;SDS011;48440;51.224;22.506;2023-03-01T16:18:06;37.35;;;16.25;;
62401;SDS011;48440;51.224;22.506;2023-03-01T16:20:35;54.38;;;17.25;;
62401;SDS011;48440;51.224;22.506;2023-03-01T16:23:02;42.97;;;17.42;;
62401;SDS011;48440;51.224;22.506;2023-03-01T16:25:32;38.70;;;16.77;;
62401;SDS011;48440;51.224;22.506;2023-03-01T16:27:58;38.35;;;17.50;;
62401;SDS011;48440;51.224;22.506;2023-03-01T16:30:26;43.10;;;17.55;;
62401;SDS011;48440;51.224;22.506;2023-03-01T16:32:51;50.55;;;19.35;;
62401;SDS011;48440;51.224;22.506;2023-03-01T16:35:19;48.58;;;20.13;;
62401;SDS011;48440;51.224;22.506;2023-03-01T16:37:47;44.70;;;19.95;;
62401;SDS011;48440;51.224;22.506;2023-03-01T16:40:18;50.30;;;21.50;;
62401;SDS011;48440;51.224;22.506;2023-03-01T16:42:51;44.83;;;21.98;;
62401;SDS011;48440;51.224;22.506;2023-03-01T16:45:20;55.70;;;22.08;;
62401;SDS011;48440;51.224;22.506;2023-03-01T16:47:46;52.92;;;21.73;;
62401;SDS011;48440;51.224;22.506;2023-03-01T16:56:51;65.53;;;25.60;;
62401;SDS011;48440;51.224;22.506;2023-03-01T16:59:29;71.22;;;28.27;;
62401;SDS011;48440;51.224;22.506;2023-03-01T17:02:08;79.57;;;31.52;;
62401;SDS011;48440;51.224;22.506;2023-03-01T17:05:17;89.60;;;32.17;;
62401;SDS011;48440;51.224;22.506;2023-03-01T17:07:53;91.65;;;31.73;;
62401;SDS011;48440;51.224;22.506;2023-03-01T17:13:22;128.00;;;44.67;;
62401;SDS011;48440;51.224;22.506;2023-03-01T17:15:51;114.43;;;43.65;;
62401;SDS011;48440;51.224;22.506;2023-03-01T17:18:17;110.75;;;41.80;;
62401;SDS011;48440;51.224;22.506;2023-03-01T17:20:45;121.55;;;38.78;;
62401;SDS011;48440;51.224;22.506;2023-03-01T17:26:20;119.75;;;45.22;;
62401;SDS011;48440;51.224;22.506;2023-03-01T17:29:02;134.88;;;47.67;;
62401;SDS011;48440;51.224;22.506;2023-03-01T17:32:00;137.05;;;49.25;;
62401;SDS011;48440;51.224;22.506;2023-03-01T17:34:29;211.10;;;73.30;;
62401;SDS011;48440;51.224;22.506;2023-03-01T17:36:56;210.00;;;69.72;;
62401;SDS011;48440;51.224;22.506;2023-03-01T17:39:22;192.57;;;66.45;;
62401;SDS011;48440;51.224;22.506;2023-03-01T17:41:55;199.88;;;62.70;;
62401;SDS011;48440;51.224;22.506;2023-03-01T17:44:21;245.20;;;75.28;;
62401;SDS011;48440;51.224;22.506;2023-03-01T17:46:48;232.43;;;73.78;;
62401;SDS011;48440;51.224;22.506;2023-03-01T17:49:14;242.00;;;68.07;;
62401;SDS011;48440;51.224;22.506;2023-03-01T17:51:41;278.98;;;82.00;;
62401;SDS011;48440;51.224;22.506;2023-03-01T17:54:08;275.08;;;77.25;;
62401;SDS011;48440;51.224;22.506;2023-03-01T17:56:33;246.70;;;70.43;;
62401;SDS011;48440;51.224;22.506;2023-03-01T17:59:02;220.85;;;65.50;;
62401;SDS011;48440;51.224;22.506;2023-03-01T18:01:28;223.57;;;62.42;;
62401;SDS011;48440;51.224;22.506;2023-03-01T18:03:54;194.02;;;62.15;;
62401;SDS011;48440;51.224;22.506;2023-03-01T18:06:24;202.98;;;63.08;;
62401;SDS011;48440;51.224;22.506;2023-03-01T18:08:53;204.43;;;62.07;;
62401;SDS011;48440;51.224;22.506;2023-03-01T18:11:20;186.88;;;61.28;;
62401;SDS011;48440;51.224;22.506;2023-03-01T18:13:50;207.27;;;62.10;;
62401;SDS011;48440;51.224;22.506;2023-03-01T18:16:26;216.68;;;63.58;;
62401;SDS011;48440;51.224;22.506;2023-03-01T18:19:13;240.23;;;71.72;;
62401;SDS011;48440;51.224;22.506;2023-03-01T18:21:51;229.05;;;66.32;;
62401;SDS011;48440;51.224;22.506;2023-03-01T18:24:20;245.73;;;71.13;;
62401;SDS011;48440;51.224;22.506;2023-03-01T18:29:53;244.00;;;72.38;;
62401;SDS011;48440;51.224;22.506;2023-03-01T18:32:22;240.60;;;74.97;;
62401;SDS011;48440;51.224;22.506;2023-03-01T18:34:48;228.35;;;74.32;;
62401;SDS011;48440;51.224;22.506;2023-03-01T18:37:32;226.57;;;69.30;;
62401;SDS011;48440;51.224;22.506;2023-03-01T18:42:32;211.65;;;64.80;;
62401;SDS011;48440;51.224;22.506;2023-03-01T18:44:58;196.02;;;64.22;;
62401;SDS011;48440;51.224;22.506;2023-03-01T18:47:30;202.38;;;62.55;;
62401;SDS011;48440;51.224;22.506;2023-03-01T18:49:55;200.52;;;62.40;;